sensor_id;sensor_type;location;lat;lon;timestamp;P1;durP1;ratioP1;P2;durP2;ratioP2
60935;SDS011;46804;51.786;19.520;2023-07-31T00:00:47;7.60;;;2.72;;
60935;SDS011;46804;51.786;19.520;2023-07-31T00:05:00;5.30;;;2.63;;
60935;SDS011;46804;51.786;19.520;2023-07-31T00:09:01;5.57;;;2.63;;
60935;SDS011;46804;51.786;19.520;2023-07-31T00:13:02;3.58;;;2.50;;
60935;SDS011;46804;51.786;19.520;2023-07-31T00:17:03;4.43;;;2.88;;
60935;SDS011;46804;51.786;19.520;2023-07-31T00:21:04;4.45;;;2.60;;
60935;SDS011;46804;51.786;19.520;2023-07-31T00:25:05;4.32;;;3.10;;
60935;SDS011;46804;51.786;19.520;2023-07-31T00:29:06;4.18;;;2.85;;
60935;SDS011;46804;51.786;19.520;2023-07-31T00:33:07;5.43;;;3.38;;
60935;SDS011;46804;51.786;19.520;2023-07-31T00:37:08;4.65;;;3.33;;
60935;SDS011;46804;51.786;19.520;2023-07-31T00:41:08;5.97;;;3.30;;
60935;SDS011;46804;51.786;19.520;2023-07-31T00:45:09;4.82;;;3.20;;
60935;SDS011;46804;51.786;19.520;2023-07-31T00:49:10;5.32;;;3.22;;
60935;SDS011;46804;51.786;19.520;2023-07-31T00:53:11;7.95;;;3.40;;
60935;SDS011;46804;51.786;19.520;2023-07-31T00:57:12;7.25;;;3.88;;
60935;SDS011;46804;51.786;19.520;2023-07-31T01:01:12;6.70;;;3.13;;
60935;SDS011;46804;51.786;19.520;2023-07-31T01:05:13;6.35;;;3.47;;
60935;SDS011;46804;51.786;19.520;2023-07-31T01:09:20;9.73;;;3.65;;
60935;SDS011;46804;51.786;19.520;2023-07-31T01:13:29;5.35;;;3.53;;
60935;SDS011;46804;51.786;19.520;2023-07-31T01:17:30;5.70;;;3.65;;
60935;SDS011;46804;51.786;19.520;2023-07-31T01:25:50;6.83;;;3.43;;
60935;SDS011;46804;51.786;19.520;2023-07-31T01:34:10;4.45;;;3.10;;
60935;SDS011;46804;51.786;19.520;2023-07-31T01:38:12;5.57;;;3.25;;
60935;SDS011;46804;51.786;19.520;2023-07-31T01:42:13;5.60;;;3.13;;
60935;SDS011;46804;51.786;19.520;2023-07-31T01:46:14;6.55;;;3.90;;
60935;SDS011;46804;51.786;19.520;2023-07-31T01:50:15;4.93;;;3.13;;
60935;SDS011;46804;51.786;19.520;2023-07-31T01:54:15;4.80;;;3.20;;
60935;SDS011;46804;51.786;19.520;2023-07-31T01:58:16;5.22;;;3.58;;
60935;SDS011;46804;51.786;19.520;2023-07-31T02:02:17;4.78;;;3.22;;
60935;SDS011;46804;51.786;19.520;2023-07-31T02:06:17;6.97;;;3.38;;
60935;SDS011;46804;51.786;19.520;2023-07-31T02:10:18;6.95;;;3.50;;
60935;SDS011;46804;51.786;19.520;2023-07-31T02:14:19;4.60;;;3.00;;
60935;SDS011;46804;51.786;19.520;2023-07-31T02:18:20;6.93;;;3.33;;
60935;SDS011;46804;51.786;19.520;2023-07-31T02:22:21;7.53;;;2.95;;
60935;SDS011;46804;51.786;19.520;2023-07-31T02:26:21;3.58;;;2.53;;
60935;SDS011;46804;51.786;19.520;2023-07-31T02:30:22;6.13;;;2.80;;
60935;SDS011;46804;51.786;19.520;2023-07-31T02:34:23;4.65;;;2.60;;
60935;SDS011;46804;51.786;19.520;2023-07-31T02:38:23;4.00;;;2.38;;
60935;SDS011;46804;51.786;19.520;2023-07-31T02:42:24;5.05;;;2.88;;
60935;SDS011;46804;51.786;19.520;2023-07-31T02:46:25;8.60;;;2.83;;
60935;SDS011;46804;51.786;19.520;2023-07-31T02:50:25;6.18;;;2.90;;
60935;SDS011;46804;51.786;19.520;2023-07-31T02:54:28;7.25;;;3.20;;
60935;SDS011;46804;51.786;19.520;2023-07-31T02:58:28;4.88;;;2.65;;
60935;SDS011;46804;51.786;19.520;2023-07-31T03:02:29;4.13;;;2.55;;
60935;SDS011;46804;51.786;19.520;2023-07-31T03:06:30;4.43;;;2.50;;
60935;SDS011;46804;51.786;19.520;2023-07-31T03:10:30;3.78;;;2.78;;
60935;SDS011;46804;51.786;19.520;2023-07-31T03:14:31;5.00;;;2.67;;
60935;SDS011;46804;51.786;19.520;2023-07-31T03:18:31;4.63;;;2.75;;
60935;SDS011;46804;51.786;19.520;2023-07-31T03:22:32;7.88;;;2.95;;
60935;SDS011;46804;51.786;19.520;2023-07-31T03:26:35;8.10;;;3.30;;
60935;SDS011;46804;51.786;19.520;2023-07-31T03:30:36;4.68;;;3.40;;
60935;SDS011;46804;51.786;19.520;2023-07-31T03:34:38;5.60;;;3.33;;
60935;SDS011;46804;51.786;19.520;2023-07-31T03:38:39;6.07;;;3.20;;
60935;SDS011;46804;51.786;19.520;2023-07-31T03:42:39;6.85;;;3.67;;
60935;SDS011;46804;51.786;19.520;2023-07-31T03:46:40;6.38;;;3.25;;
60935;SDS011;46804;51.786;19.520;2023-07-31T03:50:41;5.75;;;3.67;;
60935;SDS011;46804;51.786;19.520;2023-07-31T03:54:42;6.85;;;4.10;;
60935;SDS011;46804;51.786;19.520;2023-07-31T03:58:44;8.40;;;3.83;;
60935;SDS011;46804;51.786;19.520;2023-07-31T04:02:45;10.98;;;4.30;;
60935;SDS011;46804;51.786;19.520;2023-07-31T04:06:46;6.18;;;4.10;;
60935;SDS011;46804;51.786;19.520;2023-07-31T04:10:47;5.50;;;4.03;;
60935;SDS011;46804;51.786;19.520;2023-07-31T04:14:48;5.57;;;3.83;;
60935;SDS011;46804;51.786;19.520;2023-07-31T04:18:48;7.05;;;4.15;;
60935;SDS011;46804;51.786;19.520;2023-07-31T04:22:51;7.28;;;3.70;;
60935;SDS011;46804;51.786;19.520;2023-07-31T04:26:52;7.82;;;4.25;;
60935;SDS011;46804;51.786;19.520;2023-07-31T04:30:53;7.55;;;3.70;;
60935;SDS011;46804;51.786;19.520;2023-07-31T04:34:54;7.38;;;3.75;;
60935;SDS011;46804;51.786;19.520;2023-07-31T04:38:54;8.00;;;3.90;;
60935;SDS011;46804;51.786;19.520;2023-07-31T04:42:56;9.20;;;3.78;;
60935;SDS011;46804;51.786;19.520;2023-07-31T04:46:56;5.00;;;3.30;;
60935;SDS011;46804;51.786;19.520;2023-07-31T04:50:57;5.88;;;3.83;;
60935;SDS011;46804;51.786;19.520;2023-07-31T04:54:58;6.80;;;4.13;;
60935;SDS011;46804;51.786;19.520;2023-07-31T04:58:58;7.38;;;3.88;;
60935;SDS011;46804;51.786;19.520;2023-07-31T05:02:59;5.90;;;3.55;;
60935;SDS011;46804;51.786;19.520;2023-07-31T05:07:00;5.05;;;3.40;;
60935;SDS011;46804;51.786;19.520;2023-07-31T05:11:00;5.82;;;3.58;;
60935;SDS011;46804;51.786;19.520;2023-07-31T05:15:01;7.40;;;3.80;;
60935;SDS011;46804;51.786;19.520;2023-07-31T05:19:02;6.57;;;3.55;;
60935;SDS011;46804;51.786;19.520;2023-07-31T05:23:03;5.75;;;2.97;;
60935;SDS011;46804;51.786;19.520;2023-07-31T05:27:04;6.85;;;3.58;;
60935;SDS011;46804;51.786;19.520;2023-07-31T05:31:05;10.77;;;3.38;;
60935;SDS011;46804;51.786;19.520;2023-07-31T05:35:06;7.25;;;3.33;;
60935;SDS011;46804;51.786;19.520;2023-07-31T05:39:06;7.95;;;3.33;;
60935;SDS011;46804;51.786;19.520;2023-07-31T05:43:08;7.95;;;3.72;;
60935;SDS011;46804;51.786;19.520;2023-07-31T05:47:09;7.43;;;3.70;;
60935;SDS011;46804;51.786;19.520;2023-07-31T05:51:10;6.15;;;3.63;;
60935;SDS011;46804;51.786;19.520;2023-07-31T05:55:11;6.25;;;3.60;;
60935;SDS011;46804;51.786;19.520;2023-07-31T05:59:12;5.85;;;3.40;;
60935;SDS011;46804;51.786;19.520;2023-07-31T06:03:13;6.57;;;3.65;;
60935;SDS011;46804;51.786;19.520;2023-07-31T06:07:14;5.70;;;3.13;;
60935;SDS011;46804;51.786;19.520;2023-07-31T06:11:15;8.95;;;3.30;;
60935;SDS011;46804;51.786;19.520;2023-07-31T06:15:16;5.65;;;3.35;;
60935;SDS011;46804;51.786;19.520;2023-07-31T06:19:16;5.38;;;3.60;;
60935;SDS011;46804;51.786;19.520;2023-07-31T06:23:17;8.70;;;3.65;;
60935;SDS011;46804;51.786;19.520;2023-07-31T06:27:19;11.63;;;3.60;;
60935;SDS011;46804;51.786;19.520;2023-07-31T06:31:19;5.47;;;2.97;;
60935;SDS011;46804;51.786;19.520;2023-07-31T06:39:23;6.75;;;3.00;;
60935;SDS011;46804;51.786;19.520;2023-07-31T06:43:24;7.25;;;3.03;;
60935;SDS011;46804;51.786;19.520;2023-07-31T06:47:25;8.02;;;3.30;;
60935;SDS011;46804;51.786;19.520;2023-07-31T06:51:25;8.23;;;3.00;;
60935;SDS011;46804;51.786;19.520;2023-07-31T06:55:26;6.93;;;3.53;;
60935;SDS011;46804;51.786;19.520;2023-07-31T06:59:27;9.45;;;3.15;;
60935;SDS011;46804;51.786;19.520;2023-07-31T07:03:28;6.20;;;3.40;;
60935;SDS011;46804;51.786;19.520;2023-07-31T07:07:29;6.22;;;2.88;;
60935;SDS011;46804;51.786;19.520;2023-07-31T07:11:29;6.82;;;2.83;;
60935;SDS011;46804;51.786;19.520;2023-07-31T07:15:30;12.77;;;3.22;;
60935;SDS011;46804;51.786;19.520;2023-07-31T07:19:31;4.53;;;2.80;;
60935;SDS011;46804;51.786;19.520;2023-07-31T07:23:31;8.52;;;3.03;;
60935;SDS011;46804;51.786;19.520;2023-07-31T07:27:32;5.97;;;2.58;;
60935;SDS011;46804;51.786;19.520;2023-07-31T07:31:33;5.57;;;2.90;;
60935;SDS011;46804;51.786;19.520;2023-07-31T07:35:34;9.32;;;3.45;;
60935;SDS011;46804;51.786;19.520;2023-07-31T07:39:35;9.00;;;2.80;;
60935;SDS011;46804;51.786;19.520;2023-07-31T07:43:36;7.03;;;3.17;;
60935;SDS011;46804;51.786;19.520;2023-07-31T07:47:37;7.97;;;2.53;;
60935;SDS011;46804;51.786;19.520;2023-07-31T07:51:38;7.55;;;2.45;;
60935;SDS011;46804;51.786;19.520;2023-07-31T07:55:39;7.15;;;2.60;;
60935;SDS011;46804;51.786;19.520;2023-07-31T07:59:40;6.03;;;2.53;;
60935;SDS011;46804;51.786;19.520;2023-07-31T08:03:41;6.00;;;2.20;;
60935;SDS011;46804;51.786;19.520;2023-07-31T08:07:42;6.93;;;2.03;;
60935;SDS011;46804;51.786;19.520;2023-07-31T08:11:43;3.80;;;2.60;;
60935;SDS011;46804;51.786;19.520;2023-07-31T08:15:43;7.88;;;2.38;;
60935;SDS011;46804;51.786;19.520;2023-07-31T08:19:44;6.25;;;2.20;;
60935;SDS011;46804;51.786;19.520;2023-07-31T08:23:46;8.80;;;2.40;;
60935;SDS011;46804;51.786;19.520;2023-07-31T08:27:47;4.50;;;2.13;;
60935;SDS011;46804;51.786;19.520;2023-07-31T08:31:48;7.50;;;2.38;;
60935;SDS011;46804;51.786;19.520;2023-07-31T08:35:48;6.03;;;2.58;;
60935;SDS011;46804;51.786;19.520;2023-07-31T08:39:49;7.32;;;2.22;;
60935;SDS011;46804;51.786;19.520;2023-07-31T08:43:50;4.30;;;1.98;;
60935;SDS011;46804;51.786;19.520;2023-07-31T08:47:52;4.75;;;2.20;;
60935;SDS011;46804;51.786;19.520;2023-07-31T08:51:53;5.75;;;2.20;;
60935;SDS011;46804;51.786;19.520;2023-07-31T08:55:55;5.20;;;2.07;;
